Terminal Aerodrome Forecast
Issued by NWS

Home | Current Version | Previous Version | Text Only | Print | Product List | Glossary Off
Versions: 1 2 3 4 5 6 7 8 9 10 11 12 13 14 15 16 17

000
FTUS43 KMPX 211541 AAA
TAFAXN
TAF AMD
KAXN 211541Z 2116/2212 32021G30KT P6SM SCT025
     FM212300 32013G22KT P6SM SKC
     FM220100 32012KT P6SM SKC
     FM220800 27004KT P6SM FEW250=

USA.gov is the U.S. government's official web portal to all federal, state and local government web resources and services.